• Join FlightAware (Why Join?)
  • Login
  • US Flag 
06:49PM EST


 

Airport Tracker/Info


-or-


 

Live Flight TrackerFlight Track Log ✈ SWA975 ✈ 06-Jun-2014 ✈ KOAK - KBUR

Flight Track Log - Related Links

Times and Time Zones

All times are in EDT time to prevent confusion due to time zone crossing. See the SWA975 flight status page for this flight to view local times or setup timezone preferences in your user account.

Time Position Orientation Groundspeed Altitude Reporting Facility
EDT Latitude Longitude Course Direction KTS MPH feet Rate Location/Type
09:09PM 37.7167 -122.2500 310° West 139 160 900  Level Northern Cal TRACON
09:10PM 37.7500 -122.3000 310° West 211 243 2,800 2,263 Climbing Northern Cal TRACON
09:11PM 37.7333 -122.3667 252° West 225 259 5,200 3,000 Climbing Northern Cal TRACON
09:12PM 37.7292 -122.4047 262° West 220 253 7,100 2,903 Climbing Oakland Center
09:13PM 37.6742 -122.4486 212° Southwest 249 287 9,700 2,537 Climbing Oakland Center
09:14PM 37.5869 -122.4778 195° South 309 356 12,300 2,878 Climbing Oakland Center
09:15PM 37.4972 -122.4586 170° South 348 400 15,600 3,268 Climbing Oakland Center
09:16PM 37.4233 -122.3714 137° Southeast 362 417 19,000 3,024 Climbing Oakland Center
09:17PM 37.3442 -122.2844 139° Southeast 375 432 21,800 2,607 Climbing Oakland Center
09:18PM 37.2611 -122.1908 138° Southeast 397 457 24,300 2,390 Climbing Oakland Center
09:19PM 37.1736 -122.0947 139° Southeast 416 479 26,700 2,390 Climbing Oakland Center
09:20PM 37.0861 -121.9975 138° Southeast 420 483 29,200 1,610 Climbing Oakland Center
09:21PM 36.9769 -121.8772 139° Southeast 432 497 30,000 1,024 Climbing Oakland Center
09:22PM 36.8789 -121.7678 138° Southeast 465 535 31,300 1,561 Climbing Oakland Center
09:23PM 36.7703 -121.6494 139° Southeast 482 555 33,200 1,854 Climbing Oakland Center
09:24PM 36.6689 -121.5394 139° Southeast 486 559 35,100 1,672 Climbing Oakland Center
09:25PM 36.5675 -121.4292 139° Southeast 485 558 36,600 1,366 Climbing Oakland Center
09:26PM 36.4650 -121.3189 139° Southeast 485 558 37,900 1,171 Climbing Oakland Center
09:27PM 36.3639 -121.2094 139° Southeast 485 558 39,000 541 Climbing Oakland Center
09:28PM 36.2611 -121.0978 139° Southeast 486 559 39,000  Level Oakland Center
09:29PM 36.1600 -120.9892 139° Southeast 485 558 39,000  Level Oakland Center
09:30PM 36.0575 -120.8794 139° Southeast 485 558 39,000  Level Oakland Center
09:31PM 35.9561 -120.7711 139° Southeast 485 558 39,000  Level Oakland Center
09:32PM 35.8344 -120.6408 139° Southeast 485 558 39,000  Level Oakland Center
09:33PM 35.7333 -120.5339 139° Southeast 483 556 39,000  Level Oakland Center
09:34PM 35.6317 -120.4269 139° Southeast 482 555 39,000 -683 Level Oakland Center
09:35PM 35.5308 -120.3192 139° Southeast 480 552 37,600 -2,328 Descending Oakland Center
09:36PM 35.4050 -120.1903 140° Southeast 491 565 33,800 -3,067 Descending Los Angeles Center
09:37PM 35.2936 -120.0722 139° Southeast 497 572 30,700 -2,640 Descending Los Angeles Center
09:39PM 35.1889 -119.9650 140° Southeast 495 570 28,300 -1,645 Descending Los Angeles Center
09:40PM 35.0908 -119.8636 140° Southeast 468 539 27,300 -1,210 Descending Los Angeles Center
09:41PM 35.0067 -119.7489 132° Southeast 456 525 25,800 -1,645 Descending Los Angeles Center
09:42PM 34.9247 -119.6372 132° Southeast 448 516 23,900 -2,081 Descending Los Angeles Center
09:43PM 34.8308 -119.5097 132° Southeast 423 487 21,500 -2,177 Descending Los Angeles Center
09:44PM 34.7556 -119.4094 132° Southeast 405 466 19,400 -2,081 Descending Los Angeles Center
09:45PM 34.6825 -119.3111 132° Southeast 396 456 17,200 -2,032 Descending Los Angeles Center
09:46PM 34.6122 -119.2164 132° Southeast 385 443 15,200 -1,935 Descending Los Angeles Center
09:47PM 34.5564 -119.1075 122° Southeast 391 450 13,200 -1,935 Descending Los Angeles Center
09:48PM 34.5006 -119.0036 123° Southeast 372 428 11,200 -1,548 Descending Los Angeles Center
09:49PM 34.4044 -118.9347 149° Southeast 334 384 10,000 -1,161 Descending Los Angeles Center
09:50PM 34.3506 -118.8572 130° Southeast 310 357 8,800 -1,306 Descending Los Angeles Center
09:51PM 34.3025 -118.7819 128° Southeast 287 330 7,300 -1,500 Descending Los Angeles Center
09:52PM 34.2558 -118.7028 125° Southeast 286 329 5,700 -1,463 Descending Los Angeles Center
09:53PM 34.2086 -118.6239 126° Southeast 286 329 4,300 -1,122 Descending Los Angeles Center
09:54PM 34.2006 -118.5364 96° East 278 320 3,400 -774 Descending Los Angeles Center
09:55PM 34.1997 -118.4606 91° East 249 287 2,700 -968 Descending Los Angeles Center
09:56PM 34.1986 -118.4047 91° East 169 194 1,400 -919 Descending Los Angeles Center
09:57PM 34.1978 -118.3686 92° East 157 181 800 -581 Descending Los Angeles Center
09:59PM 34.2000 -118.3500 90° East  Level FlightAware Approximate
10:06PM 34.2007 -118.3587 90° East  Level Estimated